createdAt,value
2023-04-30T00:08:45.784Z,62.24
2023-04-30T00:19:06.834Z,62.10
2023-04-30T00:29:28.466Z,62.24
2023-04-30T00:39:49.411Z,62.32
2023-04-30T00:50:10.669Z,62.50
2023-04-30T01:00:32.245Z,62.43
2023-04-30T01:11:08.611Z,62.20
2023-04-30T01:21:31.344Z,62.08
2023-04-30T01:31:52.871Z,62.40
2023-04-30T01:43:02.327Z,62.62
2023-04-30T01:53:38.919Z,62.13
2023-04-30T02:04:00.872Z,62.09
2023-04-30T02:14:22.446Z,62.69
2023-04-30T02:24:47.362Z,62.33
2023-04-30T02:35:09.166Z,62.54
2023-04-30T02:45:31.808Z,62.22
2023-04-30T02:55:53.517Z,62.47
2023-04-30T03:06:14.573Z,62.88
2023-04-30T03:16:36.824Z,62.23
2023-04-30T03:26:58.028Z,62.86
2023-04-30T03:37:19.468Z,62.65
2023-04-30T03:47:40.914Z,62.82
2023-04-30T03:58:01.999Z,62.65
2023-04-30T04:08:23.270Z,62.77
2023-04-30T04:18:44.928Z,63.10
2023-04-30T04:29:10.283Z,62.75
2023-04-30T04:39:32.312Z,63.15
2023-04-30T04:49:53.981Z,62.85
2023-04-30T05:00:16.976Z,63.34
2023-04-30T05:10:38.603Z,63.82
2023-04-30T05:20:59.782Z,63.15
2023-04-30T05:31:21.308Z,63.09
2023-04-30T05:41:43.128Z,64.02
2023-04-30T05:52:04.865Z,63.39
2023-04-30T06:02:26.088Z,63.53
2023-04-30T06:12:47.678Z,63.84
2023-04-30T06:23:09.450Z,62.90
2023-04-30T06:33:30.629Z,62.96
2023-04-30T06:43:51.988Z,62.30
2023-04-30T06:54:14.559Z,62.38
2023-04-30T07:04:36.147Z,61.92
2023-04-30T07:14:57.268Z,61.50
2023-04-30T07:25:18.538Z,61.50
2023-04-30T07:35:39.716Z,60.42
2023-04-30T07:46:00.804Z,60.28
2023-04-30T07:56:22.391Z,60.80
2023-04-30T08:06:43.498Z,60.62
2023-04-30T08:17:05.208Z,59.91
2023-04-30T08:27:26.726Z,60.10
2023-04-30T08:37:47.765Z,60.18
2023-04-30T08:48:11.686Z,59.98
2023-04-30T08:58:32.899Z,60.03
2023-04-30T09:08:54.647Z,59.57
2023-04-30T09:19:25.565Z,59.37
2023-04-30T09:29:47.029Z,59.19
2023-04-30T09:40:09.137Z,58.96
2023-04-30T09:50:38.392Z,58.74
2023-04-30T10:01:00.977Z,58.19
2023-04-30T10:11:24.107Z,57.74
2023-04-30T10:21:46.970Z,57.34
2023-04-30T10:32:08.831Z,57.52
2023-04-30T10:42:29.902Z,56.77
2023-04-30T10:53:03.498Z,56.77
2023-04-30T11:03:25.271Z,56.38
2023-04-30T11:13:48.187Z,56.69
2023-04-30T11:24:09.552Z,55.91
2023-04-30T11:34:31.475Z,55.35
2023-04-30T11:44:52.735Z,55.95
2023-04-30T11:55:16.580Z,56.02
2023-04-30T12:05:41.289Z,55.63
2023-04-30T12:16:03.795Z,54.81
2023-04-30T12:26:36.004Z,54.24
2023-04-30T12:36:58.454Z,54.67
2023-04-30T12:47:19.726Z,54.38
2023-04-30T12:57:40.797Z,53.85
2023-04-30T13:08:02.884Z,54.14
2023-04-30T13:18:23.971Z,53.47
2023-04-30T13:28:45.427Z,53.65
2023-04-30T13:39:07.054Z,53.27
2023-04-30T13:49:28.057Z,53.11
2023-04-30T13:59:50.230Z,53.13
2023-04-30T14:10:11.409Z,53.00
2023-04-30T14:20:32.681Z,52.47
2023-04-30T14:30:54.235Z,52.25
2023-04-30T14:41:15.536Z,52.89
2023-04-30T14:51:36.974Z,52.91
2023-04-30T15:01:58.491Z,53.02
2023-04-30T15:12:20.585Z,52.76
2023-04-30T15:22:42.428Z,53.47
2023-04-30T15:33:03.679Z,53.58
2023-04-30T15:43:24.809Z,53.74
2023-04-30T15:53:46.184Z,54.51
2023-04-30T16:04:07.725Z,54.55
2023-04-30T16:14:28.878Z,54.35
2023-04-30T16:24:50.057Z,54.10
2023-04-30T16:35:11.269Z,54.11
2023-04-30T16:45:33.130Z,54.19
2023-04-30T16:55:55.554Z,54.05
2023-04-30T17:06:16.894Z,54.46
2023-04-30T17:16:38.630Z,54.43
2023-04-30T17:27:01.259Z,54.57
2023-04-30T17:37:23.565Z,54.39
2023-04-30T17:47:45.016Z,54.02
2023-04-30T17:58:09.657Z,54.22
2023-04-30T18:08:31.134Z,53.72
2023-04-30T18:18:52.794Z,53.22
2023-04-30T18:29:17.625Z,53.64
2023-04-30T18:39:39.301Z,53.81
2023-04-30T18:50:00.689Z,53.46
2023-04-30T19:00:22.196Z,53.40
2023-04-30T19:10:43.102Z,53.73
2023-04-30T19:21:05.767Z,53.46
2023-04-30T19:31:27.077Z,53.43
2023-04-30T19:41:50.044Z,53.68
2023-04-30T19:52:11.289Z,53.50
2023-04-30T20:02:32.909Z,53.63
2023-04-30T20:12:54.689Z,53.52
2023-04-30T20:23:17.922Z,54.05
2023-04-30T20:33:41.424Z,53.57
2023-04-30T20:44:02.436Z,53.08
2023-04-30T20:54:23.480Z,54.03
2023-04-30T21:04:44.606Z,53.83
2023-04-30T21:15:06.234Z,53.68
2023-04-30T21:25:27.445Z,53.74
2023-04-30T21:35:48.637Z,54.05
2023-04-30T21:46:10.438Z,54.00
2023-04-30T21:56:31.369Z,54.32
2023-04-30T22:06:52.940Z,54.11
2023-04-30T22:17:14.488Z,54.37
2023-04-30T22:27:36.091Z,54.39
2023-04-30T22:37:57.305Z,54.44
2023-04-30T22:48:18.863Z,54.09
2023-04-30T22:58:40.057Z,54.43
2023-04-30T23:09:01.302Z,54.28
2023-04-30T23:19:22.583Z,54.57
2023-04-30T23:29:43.903Z,54.71
2023-04-30T23:40:07.766Z,54.46
2023-04-30T23:50:29.184Z,54.62
